sensor_id;sensor_type;location;lat;lon;timestamp;P1;durP1;ratioP1;P2;durP2;ratioP2
77022;SDS011;65952;51.440;-2.054;2023-04-25T00:01:30;16.80;;;6.57;;
77022;SDS011;65952;51.440;-2.054;2023-04-25T00:03:57;16.92;;;7.13;;
77022;SDS011;65952;51.440;-2.054;2023-04-25T00:06:22;14.63;;;7.00;;
77022;SDS011;65952;51.440;-2.054;2023-04-25T00:08:51;12.30;;;5.50;;
77022;SDS011;65952;51.440;-2.054;2023-04-25T00:11:17;13.25;;;5.68;;
77022;SDS011;65952;51.440;-2.054;2023-04-25T00:13:43;12.00;;;5.60;;
77022;SDS011;65952;51.440;-2.054;2023-04-25T00:16:08;13.15;;;5.00;;
77022;SDS011;65952;51.440;-2.054;2023-04-25T00:18:34;14.55;;;5.25;;
77022;SDS011;65952;51.440;-2.054;2023-04-25T00:20:59;13.25;;;5.20;;
77022;SDS011;65952;51.440;-2.054;2023-04-25T00:23:25;11.90;;;5.80;;
77022;SDS011;65952;51.440;-2.054;2023-04-25T00:25:51;14.20;;;5.78;;
77022;SDS011;65952;51.440;-2.054;2023-04-25T00:28:16;13.73;;;5.63;;
77022;SDS011;65952;51.440;-2.054;2023-04-25T00:30:42;16.15;;;5.95;;
77022;SDS011;65952;51.440;-2.054;2023-04-25T00:33:08;12.10;;;5.43;;
77022;SDS011;65952;51.440;-2.054;2023-04-25T00:35:34;14.02;;;6.03;;
77022;SDS011;65952;51.440;-2.054;2023-04-25T00:38:00;11.95;;;5.40;;
77022;SDS011;65952;51.440;-2.054;2023-04-25T00:40:25;12.52;;;5.22;;
77022;SDS011;65952;51.440;-2.054;2023-04-25T00:42:52;14.30;;;5.55;;
77022;SDS011;65952;51.440;-2.054;2023-04-25T00:45:18;11.20;;;5.47;;
77022;SDS011;65952;51.440;-2.054;2023-04-25T00:47:45;13.10;;;5.10;;
77022;SDS011;65952;51.440;-2.054;2023-04-25T00:50:11;11.18;;;5.10;;
77022;SDS011;65952;51.440;-2.054;2023-04-25T00:52:41;11.32;;;5.07;;
77022;SDS011;65952;51.440;-2.054;2023-04-25T00:55:09;15.60;;;5.13;;
77022;SDS011;65952;51.440;-2.054;2023-04-25T00:57:37;12.75;;;4.30;;
77022;SDS011;65952;51.440;-2.054;2023-04-25T01:00:04;15.63;;;5.30;;
77022;SDS011;65952;51.440;-2.054;2023-04-25T01:02:31;11.23;;;4.45;;
77022;SDS011;65952;51.440;-2.054;2023-04-25T01:04:57;12.27;;;4.05;;
77022;SDS011;65952;51.440;-2.054;2023-04-25T01:07:23;11.43;;;4.47;;
77022;SDS011;65952;51.440;-2.054;2023-04-25T01:09:49;11.80;;;4.30;;
77022;SDS011;65952;51.440;-2.054;2023-04-25T01:12:16;10.23;;;4.00;;
77022;SDS011;65952;51.440;-2.054;2023-04-25T01:14:42;10.57;;;4.60;;
77022;SDS011;65952;51.440;-2.054;2023-04-25T01:17:08;9.93;;;3.80;;
77022;SDS011;65952;51.440;-2.054;2023-04-25T01:19:33;11.82;;;4.15;;
77022;SDS011;65952;51.440;-2.054;2023-04-25T01:21:59;13.13;;;4.18;;
77022;SDS011;65952;51.440;-2.054;2023-04-25T01:24:25;9.30;;;4.28;;
77022;SDS011;65952;51.440;-2.054;2023-04-25T01:26:51;10.02;;;4.03;;
77022;SDS011;65952;51.440;-2.054;2023-04-25T01:29:17;9.93;;;4.10;;
77022;SDS011;65952;51.440;-2.054;2023-04-25T01:31:43;11.68;;;3.45;;
77022;SDS011;65952;51.440;-2.054;2023-04-25T01:34:09;7.82;;;3.45;;
77022;SDS011;65952;51.440;-2.054;2023-04-25T01:36:35;14.05;;;3.78;;
77022;SDS011;65952;51.440;-2.054;2023-04-25T01:39:00;10.15;;;3.75;;
77022;SDS011;65952;51.440;-2.054;2023-04-25T01:41:26;10.00;;;3.35;;
77022;SDS011;65952;51.440;-2.054;2023-04-25T01:43:52;10.25;;;3.63;;
77022;SDS011;65952;51.440;-2.054;2023-04-25T01:46:17;11.77;;;3.70;;
77022;SDS011;65952;51.440;-2.054;2023-04-25T01:48:43;9.25;;;3.70;;
77022;SDS011;65952;51.440;-2.054;2023-04-25T01:51:08;9.95;;;3.40;;
77022;SDS011;65952;51.440;-2.054;2023-04-25T01:53:34;10.13;;;3.58;;
77022;SDS011;65952;51.440;-2.054;2023-04-25T01:56:00;12.20;;;3.65;;
77022;SDS011;65952;51.440;-2.054;2023-04-25T01:58:25;12.07;;;3.40;;
77022;SDS011;65952;51.440;-2.054;2023-04-25T02:00:51;11.68;;;3.42;;
77022;SDS011;65952;51.440;-2.054;2023-04-25T02:03:16;8.60;;;3.78;;
77022;SDS011;65952;51.440;-2.054;2023-04-25T02:05:41;8.23;;;4.10;;
77022;SDS011;65952;51.440;-2.054;2023-04-25T02:08:07;8.95;;;3.50;;
77022;SDS011;65952;51.440;-2.054;2023-04-25T02:10:34;8.05;;;3.45;;
77022;SDS011;65952;51.440;-2.054;2023-04-25T02:13:00;8.70;;;2.97;;
77022;SDS011;65952;51.440;-2.054;2023-04-25T02:15:26;6.57;;;2.92;;
77022;SDS011;65952;51.440;-2.054;2023-04-25T02:17:51;9.88;;;3.50;;
77022;SDS011;65952;51.440;-2.054;2023-04-25T02:20:18;10.27;;;3.00;;
77022;SDS011;65952;51.440;-2.054;2023-04-25T02:22:45;10.52;;;3.80;;
77022;SDS011;65952;51.440;-2.054;2023-04-25T02:25:10;10.60;;;3.33;;
77022;SDS011;65952;51.440;-2.054;2023-04-25T02:27:37;8.88;;;3.15;;
77022;SDS011;65952;51.440;-2.054;2023-04-25T02:30:02;8.00;;;3.47;;
77022;SDS011;65952;51.440;-2.054;2023-04-25T02:32:29;13.35;;;3.58;;
77022;SDS011;65952;51.440;-2.054;2023-04-25T02:34:55;8.00;;;3.25;;
77022;SDS011;65952;51.440;-2.054;2023-04-25T02:37:23;11.35;;;3.70;;
77022;SDS011;65952;51.440;-2.054;2023-04-25T02:39:49;8.57;;;3.28;;
77022;SDS011;65952;51.440;-2.054;2023-04-25T02:42:14;11.50;;;3.28;;
77022;SDS011;65952;51.440;-2.054;2023-04-25T02:44:40;12.60;;;4.07;;
77022;SDS011;65952;51.440;-2.054;2023-04-25T02:47:06;5.70;;;3.42;;
77022;SDS011;65952;51.440;-2.054;2023-04-25T02:49:31;11.35;;;4.00;;
77022;SDS011;65952;51.440;-2.054;2023-04-25T02:51:57;9.70;;;3.50;;
77022;SDS011;65952;51.440;-2.054;2023-04-25T02:54:22;15.25;;;4.35;;
77022;SDS011;65952;51.440;-2.054;2023-04-25T02:56:47;11.07;;;4.00;;
77022;SDS011;65952;51.440;-2.054;2023-04-25T02:59:13;9.07;;;3.70;;
77022;SDS011;65952;51.440;-2.054;2023-04-25T03:01:38;9.63;;;3.80;;
77022;SDS011;65952;51.440;-2.054;2023-04-25T03:04:05;11.90;;;3.88;;
77022;SDS011;65952;51.440;-2.054;2023-04-25T03:06:30;11.10;;;3.40;;
77022;SDS011;65952;51.440;-2.054;2023-04-25T03:08:55;7.82;;;3.58;;
77022;SDS011;65952;51.440;-2.054;2023-04-25T03:11:21;8.90;;;3.60;;
77022;SDS011;65952;51.440;-2.054;2023-04-25T03:13:46;11.23;;;4.20;;
77022;SDS011;65952;51.440;-2.054;2023-04-25T03:16:12;8.32;;;3.65;;
77022;SDS011;65952;51.440;-2.054;2023-04-25T03:18:37;11.20;;;3.67;;
77022;SDS011;65952;51.440;-2.054;2023-04-25T03:21:03;11.77;;;4.30;;
77022;SDS011;65952;51.440;-2.054;2023-04-25T03:23:28;9.68;;;3.85;;
77022;SDS011;65952;51.440;-2.054;2023-04-25T03:25:54;13.05;;;3.92;;
77022;SDS011;65952;51.440;-2.054;2023-04-25T03:28:19;10.95;;;3.92;;
77022;SDS011;65952;51.440;-2.054;2023-04-25T03:30:45;10.63;;;3.75;;
77022;SDS011;65952;51.440;-2.054;2023-04-25T03:33:10;7.85;;;3.67;;
77022;SDS011;65952;51.440;-2.054;2023-04-25T03:35:36;10.55;;;4.07;;
77022;SDS011;65952;51.440;-2.054;2023-04-25T03:38:01;8.23;;;3.92;;
77022;SDS011;65952;51.440;-2.054;2023-04-25T03:40:26;12.75;;;4.50;;
77022;SDS011;65952;51.440;-2.054;2023-04-25T03:42:52;9.95;;;4.47;;
77022;SDS011;65952;51.440;-2.054;2023-04-25T03:45:17;11.95;;;3.75;;
77022;SDS011;65952;51.440;-2.054;2023-04-25T03:47:43;15.68;;;4.30;;
77022;SDS011;65952;51.440;-2.054;2023-04-25T03:50:08;10.93;;;4.05;;
77022;SDS011;65952;51.440;-2.054;2023-04-25T03:52:34;12.68;;;3.83;;
77022;SDS011;65952;51.440;-2.054;2023-04-25T03:54:59;13.60;;;3.75;;
77022;SDS011;65952;51.440;-2.054;2023-04-25T03:57:25;9.80;;;3.67;;
77022;SDS011;65952;51.440;-2.054;2023-04-25T03:59:50;14.73;;;4.75;;
77022;SDS011;65952;51.440;-2.054;2023-04-25T04:02:17;15.52;;;4.72;;
77022;SDS011;65952;51.440;-2.054;2023-04-25T04:04:43;9.50;;;3.90;;
77022;SDS011;65952;51.440;-2.054;2023-04-25T04:07:09;10.55;;;4.00;;
77022;SDS011;65952;51.440;-2.054;2023-04-25T04:09:35;8.63;;;4.20;;
77022;SDS011;65952;51.440;-2.054;2023-04-25T04:12:00;11.68;;;4.78;;
77022;SDS011;65952;51.440;-2.054;2023-04-25T04:14:26;12.35;;;3.75;;
77022;SDS011;65952;51.440;-2.054;2023-04-25T04:16:52;12.57;;;4.22;;
77022;SDS011;65952;51.440;-2.054;2023-04-25T04:19:17;12.52;;;4.28;;
77022;SDS011;65952;51.440;-2.054;2023-04-25T04:21:43;14.98;;;5.35;;
77022;SDS011;65952;51.440;-2.054;2023-04-25T04:24:08;11.13;;;4.68;;
77022;SDS011;65952;51.440;-2.054;2023-04-25T04:26:35;10.10;;;4.55;;
77022;SDS011;65952;51.440;-2.054;2023-04-25T04:29:02;8.80;;;3.78;;
77022;SDS011;65952;51.440;-2.054;2023-04-25T04:31:27;9.13;;;4.22;;
77022;SDS011;65952;51.440;-2.054;2023-04-25T04:33:53;12.32;;;3.92;;
77022;SDS011;65952;51.440;-2.054;2023-04-25T04:36:18;11.85;;;5.05;;
77022;SDS011;65952;51.440;-2.054;2023-04-25T04:38:48;12.20;;;4.05;;
77022;SDS011;65952;51.440;-2.054;2023-04-25T04:41:14;13.85;;;4.45;;
77022;SDS011;65952;51.440;-2.054;2023-04-25T04:43:39;12.82;;;4.85;;
77022;SDS011;65952;51.440;-2.054;2023-04-25T04:46:05;10.27;;;4.47;;
77022;SDS011;65952;51.440;-2.054;2023-04-25T04:48:33;13.82;;;4.28;;
77022;SDS011;65952;51.440;-2.054;2023-04-25T04:50:59;10.88;;;4.50;;
77022;SDS011;65952;51.440;-2.054;2023-04-25T04:53:25;9.73;;;4.40;;
77022;SDS011;65952;51.440;-2.054;2023-04-25T04:55:50;11.52;;;3.92;;
77022;SDS011;65952;51.440;-2.054;2023-04-25T04:58:16;11.90;;;3.90;;
77022;SDS011;65952;51.440;-2.054;2023-04-25T05:00:41;12.50;;;4.15;;
77022;SDS011;65952;51.440;-2.054;2023-04-25T05:03:07;11.55;;;4.15;;
77022;SDS011;65952;51.440;-2.054;2023-04-25T05:05:32;9.88;;;4.15;;
77022;SDS011;65952;51.440;-2.054;2023-04-25T05:07:58;9.27;;;4.35;;
77022;SDS011;65952;51.440;-2.054;2023-04-25T05:10:23;13.98;;;4.70;;
77022;SDS011;65952;51.440;-2.054;2023-04-25T05:12:48;10.10;;;4.45;;
77022;SDS011;65952;51.440;-2.054;2023-04-25T05:15:14;11.68;;;4.07;;
77022;SDS011;65952;51.440;-2.054;2023-04-25T05:17:39;12.90;;;4.03;;
77022;SDS011;65952;51.440;-2.054;2023-04-25T05:20:08;12.52;;;3.85;;
77022;SDS011;65952;51.440;-2.054;2023-04-25T05:22:34;9.90;;;4.53;;
77022;SDS011;65952;51.440;-2.054;2023-04-25T05:25:00;12.10;;;4.30;;
77022;SDS011;65952;51.440;-2.054;2023-04-25T05:27:26;13.40;;;5.82;;
77022;SDS011;65952;51.440;-2.054;2023-04-25T05:29:51;10.13;;;3.80;;
77022;SDS011;65952;51.440;-2.054;2023-04-25T05:32:18;11.13;;;4.00;;
77022;SDS011;65952;51.440;-2.054;2023-04-25T05:34:43;10.38;;;4.05;;
77022;SDS011;65952;51.440;-2.054;2023-04-25T05:37:09;12.65;;;4.32;;
77022;SDS011;65952;51.440;-2.054;2023-04-25T05:39:35;10.90;;;3.60;;
77022;SDS011;65952;51.440;-2.054;2023-04-25T05:42:00;7.00;;;3.28;;
77022;SDS011;65952;51.440;-2.054;2023-04-25T05:44:26;9.80;;;3.55;;
77022;SDS011;65952;51.440;-2.054;2023-04-25T05:46:51;10.32;;;3.20;;
77022;SDS011;65952;51.440;-2.054;2023-04-25T05:49:17;12.55;;;3.60;;
77022;SDS011;65952;51.440;-2.054;2023-04-25T05:51:42;9.10;;;3.95;;
77022;SDS011;65952;51.440;-2.054;2023-04-25T05:54:08;7.72;;;3.72;;
77022;SDS011;65952;51.440;-2.054;2023-04-25T05:56:33;9.60;;;3.58;;
77022;SDS011;65952;51.440;-2.054;2023-04-25T05:58:58;7.50;;;3.90;;
77022;SDS011;65952;51.440;-2.054;2023-04-25T06:01:24;14.75;;;3.70;;
77022;SDS011;65952;51.440;-2.054;2023-04-25T06:03:49;8.60;;;3.42;;
77022;SDS011;65952;51.440;-2.054;2023-04-25T06:06:16;7.70;;;3.20;;
77022;SDS011;65952;51.440;-2.054;2023-04-25T06:08:42;11.65;;;3.25;;
77022;SDS011;65952;51.440;-2.054;2023-04-25T06:11:07;7.57;;;3.22;;
77022;SDS011;65952;51.440;-2.054;2023-04-25T06:13:32;6.43;;;3.45;;
77022;SDS011;65952;51.440;-2.054;2023-04-25T06:15:58;13.85;;;3.45;;
77022;SDS011;65952;51.440;-2.054;2023-04-25T06:18:23;9.70;;;4.38;;
77022;SDS011;65952;51.440;-2.054;2023-04-25T06:20:49;9.35;;;3.72;;
77022;SDS011;65952;51.440;-2.054;2023-04-25T06:23:14;7.22;;;3.25;;
77022;SDS011;65952;51.440;-2.054;2023-04-25T06:25:39;11.55;;;3.92;;
77022;SDS011;65952;51.440;-2.054;2023-04-25T06:28:05;10.02;;;3.65;;
77022;SDS011;65952;51.440;-2.054;2023-04-25T06:30:30;12.35;;;4.00;;
77022;SDS011;65952;51.440;-2.054;2023-04-25T06:32:56;8.07;;;3.80;;
77022;SDS011;65952;51.440;-2.054;2023-04-25T06:35:21;7.28;;;3.50;;
77022;SDS011;65952;51.440;-2.054;2023-04-25T06:37:46;11.20;;;5.13;;
77022;SDS011;65952;51.440;-2.054;2023-04-25T06:40:12;9.85;;;4.00;;
77022;SDS011;65952;51.440;-2.054;2023-04-25T06:42:38;6.70;;;3.53;;
77022;SDS011;65952;51.440;-2.054;2023-04-25T06:45:03;8.93;;;3.35;;
77022;SDS011;65952;51.440;-2.054;2023-04-25T06:47:29;6.97;;;3.00;;
77022;SDS011;65952;51.440;-2.054;2023-04-25T06:49:55;6.95;;;2.90;;
77022;SDS011;65952;51.440;-2.054;2023-04-25T06:52:20;8.18;;;3.22;;
77022;SDS011;65952;51.440;-2.054;2023-04-25T06:54:46;7.53;;;3.05;;
77022;SDS011;65952;51.440;-2.054;2023-04-25T06:57:11;5.88;;;2.88;;
77022;SDS011;65952;51.440;-2.054;2023-04-25T06:59:36;8.00;;;3.25;;
77022;SDS011;65952;51.440;-2.054;2023-04-25T07:02:02;6.70;;;2.80;;
77022;SDS011;65952;51.440;-2.054;2023-04-25T07:04:28;7.45;;;2.72;;
77022;SDS011;65952;51.440;-2.054;2023-04-25T07:06:54;6.47;;;3.10;;
77022;SDS011;65952;51.440;-2.054;2023-04-25T07:09:19;6.70;;;2.97;;
77022;SDS011;65952;51.440;-2.054;2023-04-25T07:11:45;7.63;;;3.55;;
77022;SDS011;65952;51.440;-2.054;2023-04-25T07:14:10;9.90;;;3.20;;
77022;SDS011;65952;51.440;-2.054;2023-04-25T07:16:36;7.45;;;3.10;;
77022;SDS011;65952;51.440;-2.054;2023-04-25T07:19:01;8.57;;;2.95;;
77022;SDS011;65952;51.440;-2.054;2023-04-25T07:21:27;7.65;;;3.30;;
77022;SDS011;65952;51.440;-2.054;2023-04-25T07:23:52;5.93;;;2.75;;
77022;SDS011;65952;51.440;-2.054;2023-04-25T07:26:17;7.90;;;2.92;;
77022;SDS011;65952;51.440;-2.054;2023-04-25T07:28:43;8.48;;;3.70;;
77022;SDS011;65952;51.440;-2.054;2023-04-25T07:31:08;7.78;;;2.95;;
77022;SDS011;65952;51.440;-2.054;2023-04-25T07:33:34;6.60;;;2.95;;
77022;SDS011;65952;51.440;-2.054;2023-04-25T07:36:00;7.47;;;2.83;;
77022;SDS011;65952;51.440;-2.054;2023-04-25T07:38:25;9.63;;;3.95;;
77022;SDS011;65952;51.440;-2.054;2023-04-25T07:40:51;7.40;;;3.25;;
77022;SDS011;65952;51.440;-2.054;2023-04-25T07:43:16;6.90;;;2.88;;
77022;SDS011;65952;51.440;-2.054;2023-04-25T07:45:42;10.80;;;3.65;;
77022;SDS011;65952;51.440;-2.054;2023-04-25T07:48:08;9.38;;;3.10;;
77022;SDS011;65952;51.440;-2.054;2023-04-25T07:50:33;9.45;;;3.03;;
77022;SDS011;65952;51.440;-2.054;2023-04-25T07:52:59;7.82;;;2.90;;
77022;SDS011;65952;51.440;-2.054;2023-04-25T07:55:24;9.15;;;3.25;;
77022;SDS011;65952;51.440;-2.054;2023-04-25T07:57:50;6.78;;;2.60;;
77022;SDS011;65952;51.440;-2.054;2023-04-25T08:00:15;9.13;;;2.78;;
77022;SDS011;65952;51.440;-2.054;2023-04-25T08:02:41;7.93;;;2.60;;
77022;SDS011;65952;51.440;-2.054;2023-04-25T08:05:06;7.95;;;2.72;;
77022;SDS011;65952;51.440;-2.054;2023-04-25T08:07:33;7.03;;;2.80;;
77022;SDS011;65952;51.440;-2.054;2023-04-25T08:09:59;8.88;;;3.20;;
77022;SDS011;65952;51.440;-2.054;2023-04-25T08:12:24;9.70;;;3.00;;
77022;SDS011;65952;51.440;-2.054;2023-04-25T08:14:50;6.32;;;2.65;;
77022;SDS011;65952;51.440;-2.054;2023-04-25T08:17:16;6.07;;;2.50;;
77022;SDS011;65952;51.440;-2.054;2023-04-25T08:19:41;6.53;;;2.67;;
77022;SDS011;65952;51.440;-2.054;2023-04-25T08:22:06;5.68;;;2.60;;
77022;SDS011;65952;51.440;-2.054;2023-04-25T08:24:32;7.55;;;2.88;;
77022;SDS011;65952;51.440;-2.054;2023-04-25T08:26:57;9.23;;;2.65;;
77022;SDS011;65952;51.440;-2.054;2023-04-25T08:29:24;6.22;;;2.53;;
77022;SDS011;65952;51.440;-2.054;2023-04-25T08:31:50;5.82;;;2.40;;
77022;SDS011;65952;51.440;-2.054;2023-04-25T08:34:17;10.15;;;2.90;;
77022;SDS011;65952;51.440;-2.054;2023-04-25T08:36:43;7.80;;;2.38;;
77022;SDS011;65952;51.440;-2.054;2023-04-25T08:39:08;6.38;;;2.40;;
77022;SDS011;65952;51.440;-2.054;2023-04-25T08:41:34;6.10;;;2.00;;
77022;SDS011;65952;51.440;-2.054;2023-04-25T08:44:01;6.90;;;2.45;;
77022;SDS011;65952;51.440;-2.054;2023-04-25T08:46:29;5.28;;;2.33;;
77022;SDS011;65952;51.440;-2.054;2023-04-25T08:49:00;11.23;;;2.53;;
77022;SDS011;65952;51.440;-2.054;2023-04-25T08:51:27;5.57;;;2.30;;
77022;SDS011;65952;51.440;-2.054;2023-04-25T08:53:57;7.88;;;2.10;;
77022;SDS011;65952;51.440;-2.054;2023-04-25T08:56:35;5.38;;;2.05;;
77022;SDS011;65952;51.440;-2.054;2023-04-25T08:59:02;6.57;;;2.00;;
77022;SDS011;65952;51.440;-2.054;2023-04-25T09:01:28;9.13;;;2.78;;
77022;SDS011;65952;51.440;-2.054;2023-04-25T09:03:53;7.80;;;2.40;;
77022;SDS011;65952;51.440;-2.054;2023-04-25T09:06:19;8.55;;;2.20;;
77022;SDS011;65952;51.440;-2.054;2023-04-25T09:08:44;5.28;;;2.05;;
77022;SDS011;65952;51.440;-2.054;2023-04-25T09:11:10;6.90;;;2.30;;
77022;SDS011;65952;51.440;-2.054;2023-04-25T09:13:38;5.85;;;1.90;;
77022;SDS011;65952;51.440;-2.054;2023-04-25T09:16:03;5.88;;;2.50;;
77022;SDS011;65952;51.440;-2.054;2023-04-25T09:18:33;8.23;;;3.35;;
77022;SDS011;65952;51.440;-2.054;2023-04-25T09:23:31;5.53;;;2.43;;
77022;SDS011;65952;51.440;-2.054;2023-04-25T09:26:06;7.05;;;2.40;;
77022;SDS011;65952;51.440;-2.054;2023-04-25T09:28:32;7.28;;;2.20;;
77022;SDS011;65952;51.440;-2.054;2023-04-25T09:31:00;4.75;;;1.70;;
77022;SDS011;65952;51.440;-2.054;2023-04-25T09:33:29;3.60;;;1.60;;
77022;SDS011;65952;51.440;-2.054;2023-04-25T09:36:01;4.82;;;1.70;;
77022;SDS011;65952;51.440;-2.054;2023-04-25T09:38:29;5.80;;;2.20;;
77022;SDS011;65952;51.440;-2.054;2023-04-25T09:40:55;10.93;;;4.00;;
77022;SDS011;65952;51.440;-2.054;2023-04-25T09:43:22;4.72;;;2.42;;
77022;SDS011;65952;51.440;-2.054;2023-04-25T09:45:48;5.25;;;2.20;;
77022;SDS011;65952;51.440;-2.054;2023-04-25T09:48:17;5.97;;;1.90;;
77022;SDS011;65952;51.440;-2.054;2023-04-25T09:50:44;5.65;;;2.13;;
77022;SDS011;65952;51.440;-2.054;2023-04-25T09:53:10;4.55;;;2.20;;
77022;SDS011;65952;51.440;-2.054;2023-04-25T09:55:35;4.22;;;1.98;;
77022;SDS011;65952;51.440;-2.054;2023-04-25T09:58:03;3.80;;;1.92;;
77022;SDS011;65952;51.440;-2.054;2023-04-25T10:00:31;5.55;;;1.80;;
77022;SDS011;65952;51.440;-2.054;2023-04-25T10:02:57;5.30;;;2.72;;
77022;SDS011;65952;51.440;-2.054;2023-04-25T10:05:27;4.20;;;1.75;;
77022;SDS011;65952;51.440;-2.054;2023-04-25T10:07:57;5.78;;;1.90;;
77022;SDS011;65952;51.440;-2.054;2023-04-25T10:10:27;6.80;;;2.35;;
77022;SDS011;65952;51.440;-2.054;2023-04-25T10:12:53;5.47;;;2.13;;
77022;SDS011;65952;51.440;-2.054;2023-04-25T10:15:19;4.20;;;1.88;;
77022;SDS011;65952;51.440;-2.054;2023-04-25T10:17:46;6.07;;;2.00;;
77022;SDS011;65952;51.440;-2.054;2023-04-25T10:20:13;7.63;;;2.28;;
77022;SDS011;65952;51.440;-2.054;2023-04-25T10:22:39;4.00;;;1.73;;
77022;SDS011;65952;51.440;-2.054;2023-04-25T10:25:07;4.85;;;2.00;;
77022;SDS011;65952;51.440;-2.054;2023-04-25T10:27:34;5.07;;;2.75;;
77022;SDS011;65952;51.440;-2.054;2023-04-25T10:30:15;5.55;;;2.03;;
77022;SDS011;65952;51.440;-2.054;2023-04-25T10:32:44;6.97;;;2.38;;
77022;SDS011;65952;51.440;-2.054;2023-04-25T10:35:14;6.63;;;1.90;;
77022;SDS011;65952;51.440;-2.054;2023-04-25T10:40:26;3.47;;;2.17;;
77022;SDS011;65952;51.440;-2.054;2023-04-25T10:42:54;4.70;;;1.48;;
77022;SDS011;65952;51.440;-2.054;2023-04-25T10:45:21;5.15;;;1.75;;
77022;SDS011;65952;51.440;-2.054;2023-04-25T10:47:47;5.72;;;1.80;;
77022;SDS011;65952;51.440;-2.054;2023-04-25T10:50:16;5.07;;;1.80;;
77022;SDS011;65952;51.440;-2.054;2023-04-25T10:52:41;6.63;;;2.60;;
77022;SDS011;65952;51.440;-2.054;2023-04-25T10:55:07;30.55;;;14.13;;
77022;SDS011;65952;51.440;-2.054;2023-04-25T11:02:38;3.95;;;2.00;;
77022;SDS011;65952;51.440;-2.054;2023-04-25T11:05:16;8.32;;;2.80;;
77022;SDS011;65952;51.440;-2.054;2023-04-25T11:10:14;4.43;;;2.00;;
77022;SDS011;65952;51.440;-2.054;2023-04-25T11:12:39;4.53;;;2.00;;
77022;SDS011;65952;51.440;-2.054;2023-04-25T11:15:05;4.03;;;1.80;;
77022;SDS011;65952;51.440;-2.054;2023-04-25T11:17:32;3.33;;;1.50;;
77022;SDS011;65952;51.440;-2.054;2023-04-25T11:19:58;4.68;;;1.88;;
77022;SDS011;65952;51.440;-2.054;2023-04-25T11:22:24;3.80;;;1.75;;
77022;SDS011;65952;51.440;-2.054;2023-04-25T11:24:51;7.25;;;2.92;;
77022;SDS011;65952;51.440;-2.054;2023-04-25T11:27:16;6.63;;;2.05;;
77022;SDS011;65952;51.440;-2.054;2023-04-25T11:29:42;10.40;;;2.08;;
77022;SDS011;65952;51.440;-2.054;2023-04-25T11:32:07;4.45;;;1.77;;
77022;SDS011;65952;51.440;-2.054;2023-04-25T11:34:33;5.10;;;2.20;;
77022;SDS011;65952;51.440;-2.054;2023-04-25T11:36:59;5.78;;;2.00;;
77022;SDS011;65952;51.440;-2.054;2023-04-25T11:39:26;5.00;;;1.80;;
77022;SDS011;65952;51.440;-2.054;2023-04-25T11:41:52;4.43;;;2.00;;
77022;SDS011;65952;51.440;-2.054;2023-04-25T11:44:19;4.90;;;1.90;;
77022;SDS011;65952;51.440;-2.054;2023-04-25T11:46:45;7.30;;;2.30;;
77022;SDS011;65952;51.440;-2.054;2023-04-25T11:49:11;6.35;;;2.20;;
77022;SDS011;65952;51.440;-2.054;2023-04-25T11:51:40;6.38;;;2.10;;
77022;SDS011;65952;51.440;-2.054;2023-04-25T11:54:08;4.78;;;2.17;;
77022;SDS011;65952;51.440;-2.054;2023-04-25T11:56:33;5.03;;;1.90;;
77022;SDS011;65952;51.440;-2.054;2023-04-25T11:59:00;5.43;;;2.10;;
77022;SDS011;65952;51.440;-2.054;2023-04-25T12:03:57;4.82;;;2.33;;
77022;SDS011;65952;51.440;-2.054;2023-04-25T12:06:26;3.60;;;1.90;;
77022;SDS011;65952;51.440;-2.054;2023-04-25T12:09:02;5.85;;;2.30;;
77022;SDS011;65952;51.440;-2.054;2023-04-25T12:11:32;6.25;;;1.83;;
77022;SDS011;65952;51.440;-2.054;2023-04-25T12:14:02;4.38;;;1.85;;
77022;SDS011;65952;51.440;-2.054;2023-04-25T12:16:29;3.92;;;1.95;;
77022;SDS011;65952;51.440;-2.054;2023-04-25T12:18:55;5.38;;;2.53;;
77022;SDS011;65952;51.440;-2.054;2023-04-25T12:21:22;6.18;;;2.00;;
77022;SDS011;65952;51.440;-2.054;2023-04-25T12:23:47;5.20;;;2.15;;
77022;SDS011;65952;51.440;-2.054;2023-04-25T12:26:12;5.30;;;1.90;;
77022;SDS011;65952;51.440;-2.054;2023-04-25T12:28:38;6.00;;;2.03;;
77022;SDS011;65952;51.440;-2.054;2023-04-25T12:31:04;4.07;;;2.00;;
77022;SDS011;65952;51.440;-2.054;2023-04-25T12:33:32;4.70;;;1.92;;
77022;SDS011;65952;51.440;-2.054;2023-04-25T12:35:58;6.47;;;2.28;;
77022;SDS011;65952;51.440;-2.054;2023-04-25T12:38:29;5.05;;;2.00;;
77022;SDS011;65952;51.440;-2.054;2023-04-25T12:40:56;4.00;;;2.15;;
77022;SDS011;65952;51.440;-2.054;2023-04-25T12:43:22;4.93;;;2.05;;
77022;SDS011;65952;51.440;-2.054;2023-04-25T12:45:48;4.45;;;2.05;;
77022;SDS011;65952;51.440;-2.054;2023-04-25T12:48:17;4.22;;;2.08;;
77022;SDS011;65952;51.440;-2.054;2023-04-25T12:50:43;3.17;;;1.65;;
77022;SDS011;65952;51.440;-2.054;2023-04-25T12:53:09;5.93;;;2.00;;
77022;SDS011;65952;51.440;-2.054;2023-04-25T12:55:35;7.22;;;2.15;;
77022;SDS011;65952;51.440;-2.054;2023-04-25T12:58:00;4.65;;;1.88;;
77022;SDS011;65952;51.440;-2.054;2023-04-25T13:00:26;4.00;;;1.90;;
77022;SDS011;65952;51.440;-2.054;2023-04-25T13:02:52;4.53;;;2.03;;
77022;SDS011;65952;51.440;-2.054;2023-04-25T13:05:17;4.63;;;2.00;;
77022;SDS011;65952;51.440;-2.054;2023-04-25T13:07:43;3.40;;;1.63;;
77022;SDS011;65952;51.440;-2.054;2023-04-25T13:10:08;5.32;;;1.98;;
77022;SDS011;65952;51.440;-2.054;2023-04-25T13:12:34;5.40;;;1.90;;
77022;SDS011;65952;51.440;-2.054;2023-04-25T13:14:59;7.03;;;1.88;;
77022;SDS011;65952;51.440;-2.054;2023-04-25T13:17:25;5.57;;;2.03;;
77022;SDS011;65952;51.440;-2.054;2023-04-25T13:19:50;3.80;;;1.77;;
77022;SDS011;65952;51.440;-2.054;2023-04-25T13:22:16;6.40;;;2.10;;
77022;SDS011;65952;51.440;-2.054;2023-04-25T13:24:45;4.50;;;2.10;;
77022;SDS011;65952;51.440;-2.054;2023-04-25T13:27:11;4.60;;;1.92;;
77022;SDS011;65952;51.440;-2.054;2023-04-25T13:29:36;4.15;;;1.75;;
77022;SDS011;65952;51.440;-2.054;2023-04-25T13:32:03;9.07;;;2.22;;
77022;SDS011;65952;51.440;-2.054;2023-04-25T13:34:29;4.22;;;2.10;;
77022;SDS011;65952;51.440;-2.054;2023-04-25T13:36:54;6.30;;;2.40;;
77022;SDS011;65952;51.440;-2.054;2023-04-25T13:39:20;4.90;;;2.30;;
77022;SDS011;65952;51.440;-2.054;2023-04-25T13:41:45;5.82;;;2.40;;
77022;SDS011;65952;51.440;-2.054;2023-04-25T13:44:11;5.32;;;2.10;;
77022;SDS011;65952;51.440;-2.054;2023-04-25T13:46:36;6.85;;;2.40;;
77022;SDS011;65952;51.440;-2.054;2023-04-25T13:49:02;4.60;;;2.20;;
77022;SDS011;65952;51.440;-2.054;2023-04-25T13:51:30;6.07;;;2.30;;
77022;SDS011;65952;51.440;-2.054;2023-04-25T13:53:56;5.05;;;2.45;;
77022;SDS011;65952;51.440;-2.054;2023-04-25T13:56:22;5.65;;;2.65;;
77022;SDS011;65952;51.440;-2.054;2023-04-25T13:58:48;8.70;;;2.80;;
77022;SDS011;65952;51.440;-2.054;2023-04-25T14:01:17;6.70;;;2.55;;
77022;SDS011;65952;51.440;-2.054;2023-04-25T14:03:42;7.95;;;2.17;;
77022;SDS011;65952;51.440;-2.054;2023-04-25T14:06:08;6.43;;;2.90;;
77022;SDS011;65952;51.440;-2.054;2023-04-25T14:08:34;11.85;;;4.30;;
77022;SDS011;65952;51.440;-2.054;2023-04-25T14:10:59;7.13;;;2.25;;
77022;SDS011;65952;51.440;-2.054;2023-04-25T14:13:25;4.97;;;2.03;;
77022;SDS011;65952;51.440;-2.054;2023-04-25T14:15:51;5.07;;;2.00;;
77022;SDS011;65952;51.440;-2.054;2023-04-25T14:18:16;4.05;;;2.05;;
77022;SDS011;65952;51.440;-2.054;2023-04-25T14:20:42;4.32;;;2.10;;
77022;SDS011;65952;51.440;-2.054;2023-04-25T14:23:07;6.38;;;2.30;;
77022;SDS011;65952;51.440;-2.054;2023-04-25T14:25:33;5.72;;;2.35;;
77022;SDS011;65952;51.440;-2.054;2023-04-25T14:27:58;5.00;;;2.30;;
77022;SDS011;65952;51.440;-2.054;2023-04-25T14:30:23;7.93;;;2.38;;
77022;SDS011;65952;51.440;-2.054;2023-04-25T14:32:49;3.63;;;2.03;;
77022;SDS011;65952;51.440;-2.054;2023-04-25T14:35:15;5.43;;;2.00;;
77022;SDS011;65952;51.440;-2.054;2023-04-25T14:37:40;6.40;;;2.20;;
77022;SDS011;65952;51.440;-2.054;2023-04-25T14:40:06;6.03;;;2.28;;